KBTV

Burlington International Airport

Burlington, Vermont, USA
KBTV 201120Z 2012/2112 18005KT P6SM SKC
Issued Valid From Valid To
Jul-20 @ 11:20 UTC
(3 hours ago)
Jul-20 @ 12:00 UTC
(3 hours ago)
Jul-21 @ 12:00 UTC
(in 21 hours)
Jul-20 @ 12:00 to Jul-21 @ 12:00
KBTV 201120Z 2012/2112 18005KT P6SM SKC
Wind Visibility Clouds
180° at 5 knots Greater than 6 miles
  • Clear skies
KBTV 201120Z 2012/2112 18005KT P6SM SKC
Issued Jul-20 @ 11:20 UTC
(3 hours ago)
Valid From Jul-20 @ 12:00 UTC
(3 hours ago)
Valid To Jul-21 @ 12:00 UTC
(in 21 hours)
Jul-20 @ 12:00 - Jul-21 @ 12:00
Wind Visibility
180° at 5 knots Greater than 6 miles
Clouds
  • Clear skies